sensor_id;sensor_type;location;lat;lon;timestamp;temperature;humidity
7194;DHT22;3638;48.820;9.244;2022-09-09T00:02:28;15.80;99.90
7194;DHT22;3638;48.820;9.244;2022-09-09T00:04:59;15.70;99.90
7194;DHT22;3638;48.820;9.244;2022-09-09T00:07:38;15.70;99.90
7194;DHT22;3638;48.820;9.244;2022-09-09T00:10:16;15.70;99.90
7194;DHT22;3638;48.820;9.244;2022-09-09T00:12:53;15.60;99.90
7194;DHT22;3638;48.820;9.244;2022-09-09T00:15:28;15.60;99.90
7194;DHT22;3638;48.820;9.244;2022-09-09T00:18:07;15.50;99.90
7194;DHT22;3638;48.820;9.244;2022-09-09T00:20:46;15.40;99.90
7194;DHT22;3638;48.820;9.244;2022-09-09T00:23:22;15.50;99.90
7194;DHT22;3638;48.820;9.244;2022-09-09T00:25:57;15.50;99.90
7194;DHT22;3638;48.820;9.244;2022-09-09T00:28:32;15.50;99.90
7194;DHT22;3638;48.820;9.244;2022-09-09T00:31:11;15.50;99.90
7194;DHT22;3638;48.820;9.244;2022-09-09T00:33:43;15.50;99.90
7194;DHT22;3638;48.820;9.244;2022-09-09T00:36:13;15.60;99.90
7194;DHT22;3638;48.820;9.244;2022-09-09T00:38:45;15.60;99.90
7194;DHT22;3638;48.820;9.244;2022-09-09T00:41:19;15.70;99.90
7194;DHT22;3638;48.820;9.244;2022-09-09T00:43:55;15.70;99.90
7194;DHT22;3638;48.820;9.244;2022-09-09T00:49:27;15.90;99.90
7194;DHT22;3638;48.820;9.244;2022-09-09T00:52:12;15.90;99.90
7194;DHT22;3638;48.820;9.244;2022-09-09T00:54:51;16.00;99.90
7194;DHT22;3638;48.820;9.244;2022-09-09T00:57:26;16.00;99.90
7194;DHT22;3638;48.820;9.244;2022-09-09T01:00:16;16.10;99.90
7194;DHT22;3638;48.820;9.244;2022-09-09T01:02:53;16.10;99.90
7194;DHT22;3638;48.820;9.244;2022-09-09T01:05:37;16.20;99.90
7194;DHT22;3638;48.820;9.244;2022-09-09T01:08:14;16.30;99.90
7194;DHT22;3638;48.820;9.244;2022-09-09T01:10:51;16.30;99.90
7194;DHT22;3638;48.820;9.244;2022-09-09T01:13:24;16.40;99.90
7194;DHT22;3638;48.820;9.244;2022-09-09T01:15:53;16.40;99.90
7194;DHT22;3638;48.820;9.244;2022-09-09T01:18:23;16.40;99.90
7194;DHT22;3638;48.820;9.244;2022-09-09T01:21:01;16.40;99.90
7194;DHT22;3638;48.820;9.244;2022-09-09T01:24:01;16.40;99.90
7194;DHT22;3638;48.820;9.244;2022-09-09T01:26:37;16.40;99.90
7194;DHT22;3638;48.820;9.244;2022-09-09T01:29:09;16.40;99.90
7194;DHT22;3638;48.820;9.244;2022-09-09T01:31:39;16.40;99.90
7194;DHT22;3638;48.820;9.244;2022-09-09T01:34:12;16.40;99.90
7194;DHT22;3638;48.820;9.244;2022-09-09T01:36:43;19.10;99.90
7194;DHT22;3638;48.820;9.244;2022-09-09T01:39:14;16.50;99.90
7194;DHT22;3638;48.820;9.244;2022-09-09T01:41:42;16.50;99.90
7194;DHT22;3638;48.820;9.244;2022-09-09T01:44:09;16.50;99.90
7194;DHT22;3638;48.820;9.244;2022-09-09T01:46:37;16.50;99.90
7194;DHT22;3638;48.820;9.244;2022-09-09T01:49:06;16.50;99.90
7194;DHT22;3638;48.820;9.244;2022-09-09T01:51:34;16.50;99.90
7194;DHT22;3638;48.820;9.244;2022-09-09T01:54:02;16.50;99.90
7194;DHT22;3638;48.820;9.244;2022-09-09T01:56:39;16.50;99.90
7194;DHT22;3638;48.820;9.244;2022-09-09T01:59:24;16.40;99.90
7194;DHT22;3638;48.820;9.244;2022-09-09T02:02:10;16.50;99.90
7194;DHT22;3638;48.820;9.244;2022-09-09T02:04:41;16.50;99.90
7194;DHT22;3638;48.820;9.244;2022-09-09T02:07:19;16.50;99.90
7194;DHT22;3638;48.820;9.244;2022-09-09T02:09:58;16.40;99.90
7194;DHT22;3638;48.820;9.244;2022-09-09T02:12:30;16.40;99.90
7194;DHT22;3638;48.820;9.244;2022-09-09T02:15:02;16.40;99.90
7194;DHT22;3638;48.820;9.244;2022-09-09T02:17:34;16.40;99.90
7194;DHT22;3638;48.820;9.244;2022-09-09T02:20:06;16.30;99.90
7194;DHT22;3638;48.820;9.244;2022-09-09T02:22:36;16.20;99.90
7194;DHT22;3638;48.820;9.244;2022-09-09T02:25:07;16.10;99.90
7194;DHT22;3638;48.820;9.244;2022-09-09T02:27:36;16.10;99.90
7194;DHT22;3638;48.820;9.244;2022-09-09T02:30:05;16.00;99.90
7194;DHT22;3638;48.820;9.244;2022-09-09T02:32:34;16.00;99.90
7194;DHT22;3638;48.820;9.244;2022-09-09T02:35:05;15.90;99.90
7194;DHT22;3638;48.820;9.244;2022-09-09T02:37:36;15.90;99.90
7194;DHT22;3638;48.820;9.244;2022-09-09T02:40:06;15.80;99.90
7194;DHT22;3638;48.820;9.244;2022-09-09T02:42:40;15.80;99.90
7194;DHT22;3638;48.820;9.244;2022-09-09T02:45:10;15.70;99.90
7194;DHT22;3638;48.820;9.244;2022-09-09T02:47:44;15.80;99.90
7194;DHT22;3638;48.820;9.244;2022-09-09T02:50:18;15.80;99.90
7194;DHT22;3638;48.820;9.244;2022-09-09T02:53:01;15.70;99.90
7194;DHT22;3638;48.820;9.244;2022-09-09T02:55:38;15.70;99.90
7194;DHT22;3638;48.820;9.244;2022-09-09T02:58:10;15.60;99.90
7194;DHT22;3638;48.820;9.244;2022-09-09T03:00:43;15.60;99.90
7194;DHT22;3638;48.820;9.244;2022-09-09T03:03:11;15.60;99.90
7194;DHT22;3638;48.820;9.244;2022-09-09T03:05:38;15.60;99.90
7194;DHT22;3638;48.820;9.244;2022-09-09T03:08:06;15.60;99.90
7194;DHT22;3638;48.820;9.244;2022-09-09T03:10:33;15.70;99.90
7194;DHT22;3638;48.820;9.244;2022-09-09T03:13:00;15.70;99.90
7194;DHT22;3638;48.820;9.244;2022-09-09T03:15:28;15.60;99.90
7194;DHT22;3638;48.820;9.244;2022-09-09T03:17:56;15.70;99.90
7194;DHT22;3638;48.820;9.244;2022-09-09T03:20:24;15.60;99.90
7194;DHT22;3638;48.820;9.244;2022-09-09T03:22:52;15.60;99.90
7194;DHT22;3638;48.820;9.244;2022-09-09T03:25:19;15.50;99.90
7194;DHT22;3638;48.820;9.244;2022-09-09T03:27:49;15.50;99.90
7194;DHT22;3638;48.820;9.244;2022-09-09T03:30:19;15.60;99.90
7194;DHT22;3638;48.820;9.244;2022-09-09T03:32:48;15.60;99.90
7194;DHT22;3638;48.820;9.244;2022-09-09T03:35:15;15.60;99.90
7194;DHT22;3638;48.820;9.244;2022-09-09T03:37:42;15.50;99.90
7194;DHT22;3638;48.820;9.244;2022-09-09T03:40:10;15.50;99.90
7194;DHT22;3638;48.820;9.244;2022-09-09T03:42:38;15.50;99.90
7194;DHT22;3638;48.820;9.244;2022-09-09T03:45:07;15.50;99.90
7194;DHT22;3638;48.820;9.244;2022-09-09T03:47:36;15.50;99.90
7194;DHT22;3638;48.820;9.244;2022-09-09T03:50:05;15.40;99.90
7194;DHT22;3638;48.820;9.244;2022-09-09T03:52:35;15.50;99.90
7194;DHT22;3638;48.820;9.244;2022-09-09T03:55:02;15.50;99.90
7194;DHT22;3638;48.820;9.244;2022-09-09T03:57:29;15.50;99.90
7194;DHT22;3638;48.820;9.244;2022-09-09T03:59:57;15.40;99.90
7194;DHT22;3638;48.820;9.244;2022-09-09T04:02:26;15.40;99.90
7194;DHT22;3638;48.820;9.244;2022-09-09T04:04:53;15.40;99.90
7194;DHT22;3638;48.820;9.244;2022-09-09T04:07:22;15.50;99.90
7194;DHT22;3638;48.820;9.244;2022-09-09T04:09:48;15.40;99.90
7194;DHT22;3638;48.820;9.244;2022-09-09T04:12:16;15.50;99.90
7194;DHT22;3638;48.820;9.244;2022-09-09T04:14:43;15.50;99.90
7194;DHT22;3638;48.820;9.244;2022-09-09T04:17:10;15.50;99.90
7194;DHT22;3638;48.820;9.244;2022-09-09T04:19:37;15.50;99.90
7194;DHT22;3638;48.820;9.244;2022-09-09T04:22:04;15.40;99.90
7194;DHT22;3638;48.820;9.244;2022-09-09T04:24:32;15.50;99.90
7194;DHT22;3638;48.820;9.244;2022-09-09T04:27:00;15.50;99.90
7194;DHT22;3638;48.820;9.244;2022-09-09T04:29:27;15.40;99.90
7194;DHT22;3638;48.820;9.244;2022-09-09T04:31:54;15.50;99.90
7194;DHT22;3638;48.820;9.244;2022-09-09T04:34:21;15.50;99.90
7194;DHT22;3638;48.820;9.244;2022-09-09T04:36:48;15.50;99.90
7194;DHT22;3638;48.820;9.244;2022-09-09T04:39:15;15.50;99.90
7194;DHT22;3638;48.820;9.244;2022-09-09T04:41:43;15.40;99.90
7194;DHT22;3638;48.820;9.244;2022-09-09T04:44:10;15.40;99.90
7194;DHT22;3638;48.820;9.244;2022-09-09T04:46:36;15.50;99.90
7194;DHT22;3638;48.820;9.244;2022-09-09T04:51:30;15.40;99.90
7194;DHT22;3638;48.820;9.244;2022-09-09T04:53:58;15.40;99.90
7194;DHT22;3638;48.820;9.244;2022-09-09T04:56:25;15.40;99.90
7194;DHT22;3638;48.820;9.244;2022-09-09T04:58:54;15.40;99.90
7194;DHT22;3638;48.820;9.244;2022-09-09T05:01:22;15.40;99.90
7194;DHT22;3638;48.820;9.244;2022-09-09T05:03:50;15.30;99.90
7194;DHT22;3638;48.820;9.244;2022-09-09T05:06:20;16.30;99.90
7194;DHT22;3638;48.820;9.244;2022-09-09T05:08:48;15.20;99.90
7194;DHT22;3638;48.820;9.244;2022-09-09T05:11:16;15.30;99.90
7194;DHT22;3638;48.820;9.244;2022-09-09T05:13:44;15.30;99.90
7194;DHT22;3638;48.820;9.244;2022-09-09T05:16:13;15.30;99.90
7194;DHT22;3638;48.820;9.244;2022-09-09T05:18:40;15.30;99.90
7194;DHT22;3638;48.820;9.244;2022-09-09T05:21:08;15.30;99.90
7194;DHT22;3638;48.820;9.244;2022-09-09T05:23:36;15.30;99.90
7194;DHT22;3638;48.820;9.244;2022-09-09T05:26:04;15.40;99.90
7194;DHT22;3638;48.820;9.244;2022-09-09T05:28:34;15.50;99.90
7194;DHT22;3638;48.820;9.244;2022-09-09T05:31:03;15.70;99.90
7194;DHT22;3638;48.820;9.244;2022-09-09T05:33:35;15.70;99.90
7194;DHT22;3638;48.820;9.244;2022-09-09T05:36:04;15.80;99.90
7194;DHT22;3638;48.820;9.244;2022-09-09T05:38:33;15.80;99.90
7194;DHT22;3638;48.820;9.244;2022-09-09T05:41:01;16.00;99.90
7194;DHT22;3638;48.820;9.244;2022-09-09T05:43:29;16.10;99.90
7194;DHT22;3638;48.820;9.244;2022-09-09T05:46:02;16.10;99.90
7194;DHT22;3638;48.820;9.244;2022-09-09T05:48:31;16.10;99.90
7194;DHT22;3638;48.820;9.244;2022-09-09T05:51:01;16.20;99.90
7194;DHT22;3638;48.820;9.244;2022-09-09T05:53:29;16.30;99.90
7194;DHT22;3638;48.820;9.244;2022-09-09T05:56:01;16.30;99.90
7194;DHT22;3638;48.820;9.244;2022-09-09T05:58:30;16.40;99.90
7194;DHT22;3638;48.820;9.244;2022-09-09T06:01:01;16.30;99.90
7194;DHT22;3638;48.820;9.244;2022-09-09T06:03:29;16.50;99.90
7194;DHT22;3638;48.820;9.244;2022-09-09T06:06:02;16.60;99.90
7194;DHT22;3638;48.820;9.244;2022-09-09T06:08:31;16.60;99.90
7194;DHT22;3638;48.820;9.244;2022-09-09T06:11:01;16.60;99.90
7194;DHT22;3638;48.820;9.244;2022-09-09T06:13:30;16.70;99.90
7194;DHT22;3638;48.820;9.244;2022-09-09T06:15:57;16.80;99.90
7194;DHT22;3638;48.820;9.244;2022-09-09T06:18:25;16.70;99.90
7194;DHT22;3638;48.820;9.244;2022-09-09T06:20:56;16.70;99.90
7194;DHT22;3638;48.820;9.244;2022-09-09T06:23:25;16.80;99.90
7194;DHT22;3638;48.820;9.244;2022-09-09T06:26:01;16.90;99.90
7194;DHT22;3638;48.820;9.244;2022-09-09T06:28:32;16.90;99.90
7194;DHT22;3638;48.820;9.244;2022-09-09T06:30:59;16.90;99.90
7194;DHT22;3638;48.820;9.244;2022-09-09T06:33:26;16.90;99.90
7194;DHT22;3638;48.820;9.244;2022-09-09T06:35:56;16.90;99.90
7194;DHT22;3638;48.820;9.244;2022-09-09T06:38:25;17.10;99.90
7194;DHT22;3638;48.820;9.244;2022-09-09T06:40:53;17.20;99.90
7194;DHT22;3638;48.820;9.244;2022-09-09T06:43:21;17.20;99.90
7194;DHT22;3638;48.820;9.244;2022-09-09T06:45:53;17.20;99.90
7194;DHT22;3638;48.820;9.244;2022-09-09T06:48:21;17.30;99.90
7194;DHT22;3638;48.820;9.244;2022-09-09T06:50:48;17.30;99.90
7194;DHT22;3638;48.820;9.244;2022-09-09T06:53:16;17.40;99.90
7194;DHT22;3638;48.820;9.244;2022-09-09T06:55:45;17.40;99.90
7194;DHT22;3638;48.820;9.244;2022-09-09T06:58:13;17.60;99.90
7194;DHT22;3638;48.820;9.244;2022-09-09T07:00:40;17.60;99.90
7194;DHT22;3638;48.820;9.244;2022-09-09T07:03:07;17.60;99.90
7194;DHT22;3638;48.820;9.244;2022-09-09T07:05:34;17.70;99.90
7194;DHT22;3638;48.820;9.244;2022-09-09T07:08:01;17.90;99.90
7194;DHT22;3638;48.820;9.244;2022-09-09T07:10:28;17.90;99.90
7194;DHT22;3638;48.820;9.244;2022-09-09T07:12:57;18.00;99.90
7194;DHT22;3638;48.820;9.244;2022-09-09T07:15:25;18.10;99.90
7194;DHT22;3638;48.820;9.244;2022-09-09T07:17:52;18.10;99.90
7194;DHT22;3638;48.820;9.244;2022-09-09T07:20:19;18.10;99.90
7194;DHT22;3638;48.820;9.244;2022-09-09T07:22:46;18.30;99.90
7194;DHT22;3638;48.820;9.244;2022-09-09T07:25:13;18.70;99.90
7194;DHT22;3638;48.820;9.244;2022-09-09T07:27:42;18.70;99.90
7194;DHT22;3638;48.820;9.244;2022-09-09T07:30:11;19.10;99.90
7194;DHT22;3638;48.820;9.244;2022-09-09T07:32:39;19.00;99.90
7194;DHT22;3638;48.820;9.244;2022-09-09T07:35:06;19.10;99.90
7194;DHT22;3638;48.820;9.244;2022-09-09T07:37:36;19.20;99.90
7194;DHT22;3638;48.820;9.244;2022-09-09T07:40:04;19.40;99.90
7194;DHT22;3638;48.820;9.244;2022-09-09T07:42:31;19.70;99.80
7194;DHT22;3638;48.820;9.244;2022-09-09T07:44:59;19.70;99.90
7194;DHT22;3638;48.820;9.244;2022-09-09T07:47:27;19.60;99.80
7194;DHT22;3638;48.820;9.244;2022-09-09T07:49:54;19.70;99.90
7194;DHT22;3638;48.820;9.244;2022-09-09T07:52:21;20.30;98.50
7194;DHT22;3638;48.820;9.244;2022-09-09T07:54:48;20.30;98.50
7194;DHT22;3638;48.820;9.244;2022-09-09T07:57:15;20.20;99.40
7194;DHT22;3638;48.820;9.244;2022-09-09T07:59:42;20.10;98.80
7194;DHT22;3638;48.820;9.244;2022-09-09T08:02:10;20.10;98.90
7194;DHT22;3638;48.820;9.244;2022-09-09T08:04:38;20.10;99.10
7194;DHT22;3638;48.820;9.244;2022-09-09T08:07:05;20.40;98.80
7194;DHT22;3638;48.820;9.244;2022-09-09T08:09:32;21.00;98.10
7194;DHT22;3638;48.820;9.244;2022-09-09T08:12:00;21.60;96.90
7194;DHT22;3638;48.820;9.244;2022-09-09T08:14:27;21.60;96.30
7194;DHT22;3638;48.820;9.244;2022-09-09T08:16:55;21.80;96.20
7194;DHT22;3638;48.820;9.244;2022-09-09T08:19:22;21.70;96.00
7194;DHT22;3638;48.820;9.244;2022-09-09T08:21:51;22.20;95.70
7194;DHT22;3638;48.820;9.244;2022-09-09T08:24:19;22.60;94.60
7194;DHT22;3638;48.820;9.244;2022-09-09T08:26:47;22.40;94.60
7194;DHT22;3638;48.820;9.244;2022-09-09T08:29:15;22.50;94.60
7194;DHT22;3638;48.820;9.244;2022-09-09T08:31:44;22.40;94.00
7194;DHT22;3638;48.820;9.244;2022-09-09T08:34:12;22.60;94.00
7194;DHT22;3638;48.820;9.244;2022-09-09T08:36:42;22.90;93.50
7194;DHT22;3638;48.820;9.244;2022-09-09T08:39:13;23.00;93.40
7194;DHT22;3638;48.820;9.244;2022-09-09T08:42:04;23.10;93.80
7194;DHT22;3638;48.820;9.244;2022-09-09T08:44:59;23.30;93.10
7194;DHT22;3638;48.820;9.244;2022-09-09T08:47:45;23.30;93.40
7194;DHT22;3638;48.820;9.244;2022-09-09T08:50:22;23.40;93.30
7194;DHT22;3638;48.820;9.244;2022-09-09T08:52:57;23.40;92.50
7194;DHT22;3638;48.820;9.244;2022-09-09T08:55:37;23.50;91.40
7194;DHT22;3638;48.820;9.244;2022-09-09T08:58:12;23.10;92.10
7194;DHT22;3638;48.820;9.244;2022-09-09T09:03:24;23.20;92.60
7194;DHT22;3638;48.820;9.244;2022-09-09T09:06:01;23.30;91.70
7194;DHT22;3638;48.820;9.244;2022-09-09T09:08:39;23.40;91.40
7194;DHT22;3638;48.820;9.244;2022-09-09T09:11:12;23.40;91.50
7194;DHT22;3638;48.820;9.244;2022-09-09T09:13:43;23.20;90.70
7194;DHT22;3638;48.820;9.244;2022-09-09T09:16:18;23.20;91.10
7194;DHT22;3638;48.820;9.244;2022-09-09T09:18:49;23.20;90.60
7194;DHT22;3638;48.820;9.244;2022-09-09T09:21:19;22.80;90.40
7194;DHT22;3638;48.820;9.244;2022-09-09T09:23:55;22.80;90.80
7194;DHT22;3638;48.820;9.244;2022-09-09T09:26:30;23.20;90.10
7194;DHT22;3638;48.820;9.244;2022-09-09T09:28:59;23.20;88.20
7194;DHT22;3638;48.820;9.244;2022-09-09T09:33:56;23.00;89.30
7194;DHT22;3638;48.820;9.244;2022-09-09T09:36:34;22.90;90.30
7194;DHT22;3638;48.820;9.244;2022-09-09T09:39:04;22.50;91.50
7194;DHT22;3638;48.820;9.244;2022-09-09T09:41:36;22.00;90.90
7194;DHT22;3638;48.820;9.244;2022-09-09T09:44:05;21.80;91.50
7194;DHT22;3638;48.820;9.244;2022-09-09T09:46:50;21.60;92.80
7194;DHT22;3638;48.820;9.244;2022-09-09T09:49:17;20.90;93.90
7194;DHT22;3638;48.820;9.244;2022-09-09T09:51:44;20.60;93.50
7194;DHT22;3638;48.820;9.244;2022-09-09T09:54:17;20.90;93.00
7194;DHT22;3638;48.820;9.244;2022-09-09T09:56:48;21.00;92.80
7194;DHT22;3638;48.820;9.244;2022-09-09T09:59:23;21.10;91.60
7194;DHT22;3638;48.820;9.244;2022-09-09T10:02:13;21.80;90.80
7194;DHT22;3638;48.820;9.244;2022-09-09T10:04:41;22.10;90.00
7194;DHT22;3638;48.820;9.244;2022-09-09T10:07:11;22.20;89.20
7194;DHT22;3638;48.820;9.244;2022-09-09T10:09:38;22.20;89.80
7194;DHT22;3638;48.820;9.244;2022-09-09T10:12:17;22.70;88.50
7194;DHT22;3638;48.820;9.244;2022-09-09T10:14:57;22.90;87.50
7194;DHT22;3638;48.820;9.244;2022-09-09T10:17:35;23.00;86.70
7194;DHT22;3638;48.820;9.244;2022-09-09T10:20:18;23.00;87.00
7194;DHT22;3638;48.820;9.244;2022-09-09T10:23:02;23.00;86.60
7194;DHT22;3638;48.820;9.244;2022-09-09T10:25:54;23.00;88.30
7194;DHT22;3638;48.820;9.244;2022-09-09T10:28:58;23.10;88.80
7194;DHT22;3638;48.820;9.244;2022-09-09T10:31:36;23.20;88.50
7194;DHT22;3638;48.820;9.244;2022-09-09T10:34:16;23.20;89.10
7194;DHT22;3638;48.820;9.244;2022-09-09T10:36:48;23.10;90.30
7194;DHT22;3638;48.820;9.244;2022-09-09T10:39:30;23.10;90.70
7194;DHT22;3638;48.820;9.244;2022-09-09T10:42:04;23.30;90.20
7194;DHT22;3638;48.820;9.244;2022-09-09T10:44:48;23.40;90.60
7194;DHT22;3638;48.820;9.244;2022-09-09T10:47:33;23.60;90.30
7194;DHT22;3638;48.820;9.244;2022-09-09T10:50:42;23.80;89.20
7194;DHT22;3638;48.820;9.244;2022-09-09T10:53:22;23.80;88.50
7194;DHT22;3638;48.820;9.244;2022-09-09T10:55:57;23.70;87.90
7194;DHT22;3638;48.820;9.244;2022-09-09T10:58:32;23.60;89.30
7194;DHT22;3638;48.820;9.244;2022-09-09T11:01:12;23.30;90.00
7194;DHT22;3638;48.820;9.244;2022-09-09T11:03:43;23.30;90.50
7194;DHT22;3638;48.820;9.244;2022-09-09T11:06:18;23.60;89.90
7194;DHT22;3638;48.820;9.244;2022-09-09T11:08:47;23.70;90.20
7194;DHT22;3638;48.820;9.244;2022-09-09T11:11:18;24.00;89.80
7194;DHT22;3638;48.820;9.244;2022-09-09T11:13:53;24.00;90.10
7194;DHT22;3638;48.820;9.244;2022-09-09T11:16:28;24.50;88.20
7194;DHT22;3638;48.820;9.244;2022-09-09T11:19:01;24.20;87.60
7194;DHT22;3638;48.820;9.244;2022-09-09T11:21:39;23.90;87.40
7194;DHT22;3638;48.820;9.244;2022-09-09T11:24:12;23.40;83.60
7194;DHT22;3638;48.820;9.244;2022-09-09T11:26:46;23.30;84.00
7194;DHT22;3638;48.820;9.244;2022-09-09T11:29:42;22.80;86.40
7194;DHT22;3638;48.820;9.244;2022-09-09T11:32:34;22.10;87.30
7194;DHT22;3638;48.820;9.244;2022-09-09T11:35:26;21.60;88.80
7194;DHT22;3638;48.820;9.244;2022-09-09T11:38:21;21.40;90.10
7194;DHT22;3638;48.820;9.244;2022-09-09T11:40:57;21.10;90.40
7194;DHT22;3638;48.820;9.244;2022-09-09T11:43:29;21.20;91.00
7194;DHT22;3638;48.820;9.244;2022-09-09T11:46:00;21.20;91.00
7194;DHT22;3638;48.820;9.244;2022-09-09T11:48:35;21.20;90.90
7194;DHT22;3638;48.820;9.244;2022-09-09T11:51:05;21.30;90.20
7194;DHT22;3638;48.820;9.244;2022-09-09T11:53:35;21.30;90.50
7194;DHT22;3638;48.820;9.244;2022-09-09T11:56:10;21.40;91.10
7194;DHT22;3638;48.820;9.244;2022-09-09T11:58:43;21.40;90.20
7194;DHT22;3638;48.820;9.244;2022-09-09T12:01:29;21.70;88.40
7194;DHT22;3638;48.820;9.244;2022-09-09T12:04:32;21.70;88.90
7194;DHT22;3638;48.820;9.244;2022-09-09T12:07:04;21.80;90.00
7194;DHT22;3638;48.820;9.244;2022-09-09T12:12:28;21.90;89.90
7194;DHT22;3638;48.820;9.244;2022-09-09T12:17:50;22.40;87.50
7194;DHT22;3638;48.820;9.244;2022-09-09T12:20:21;22.40;86.90
7194;DHT22;3638;48.820;9.244;2022-09-09T12:23:14;22.30;85.00
7194;DHT22;3638;48.820;9.244;2022-09-09T12:26:01;22.50;86.50
7194;DHT22;3638;48.820;9.244;2022-09-09T12:28:45;22.50;84.70
7194;DHT22;3638;48.820;9.244;2022-09-09T12:31:22;22.00;84.20
7194;DHT22;3638;48.820;9.244;2022-09-09T12:33:51;22.10;84.90
7194;DHT22;3638;48.820;9.244;2022-09-09T12:36:22;22.00;84.40
7194;DHT22;3638;48.820;9.244;2022-09-09T12:38:51;22.20;85.00
7194;DHT22;3638;48.820;9.244;2022-09-09T12:41:20;22.20;84.90
7194;DHT22;3638;48.820;9.244;2022-09-09T12:43:48;22.30;84.40
7194;DHT22;3638;48.820;9.244;2022-09-09T12:46:24;22.40;83.10
7194;DHT22;3638;48.820;9.244;2022-09-09T12:48:57;22.40;83.50
7194;DHT22;3638;48.820;9.244;2022-09-09T12:51:28;22.40;82.90
7194;DHT22;3638;48.820;9.244;2022-09-09T12:53:58;22.40;83.90
7194;DHT22;3638;48.820;9.244;2022-09-09T12:56:28;22.70;78.90
7194;DHT22;3638;48.820;9.244;2022-09-09T12:58:57;22.80;80.20
7194;DHT22;3638;48.820;9.244;2022-09-09T13:01:28;23.00;81.20
7194;DHT22;3638;48.820;9.244;2022-09-09T13:03:56;23.20;81.10
7194;DHT22;3638;48.820;9.244;2022-09-09T13:06:26;23.40;79.70
7194;DHT22;3638;48.820;9.244;2022-09-09T13:08:55;23.50;78.30
7194;DHT22;3638;48.820;9.244;2022-09-09T13:11:27;23.60;79.40
7194;DHT22;3638;48.820;9.244;2022-09-09T13:14:00;23.70;79.30
7194;DHT22;3638;48.820;9.244;2022-09-09T13:16:29;23.90;79.00
7194;DHT22;3638;48.820;9.244;2022-09-09T13:18:58;23.90;79.60
7194;DHT22;3638;48.820;9.244;2022-09-09T13:21:34;24.00;77.80
7194;DHT22;3638;48.820;9.244;2022-09-09T13:24:04;24.00;78.60
7194;DHT22;3638;48.820;9.244;2022-09-09T13:26:35;23.70;78.20
7194;DHT22;3638;48.820;9.244;2022-09-09T13:29:16;23.70;78.50
7194;DHT22;3638;48.820;9.244;2022-09-09T13:31:45;23.40;80.40
7194;DHT22;3638;48.820;9.244;2022-09-09T13:34:12;23.20;79.70
7194;DHT22;3638;48.820;9.244;2022-09-09T13:36:46;23.20;80.70
7194;DHT22;3638;48.820;9.244;2022-09-09T13:39:16;23.10;80.70
7194;DHT22;3638;48.820;9.244;2022-09-09T13:41:45;23.50;79.50
7194;DHT22;3638;48.820;9.244;2022-09-09T13:44:18;23.50;80.60
7194;DHT22;3638;48.820;9.244;2022-09-09T13:47:00;23.90;79.10
7194;DHT22;3638;48.820;9.244;2022-09-09T13:49:29;24.00;80.40
7194;DHT22;3638;48.820;9.244;2022-09-09T13:52:12;23.70;78.50
7194;DHT22;3638;48.820;9.244;2022-09-09T13:54:40;23.70;79.30
7194;DHT22;3638;48.820;9.244;2022-09-09T13:57:15;23.40;78.70
7194;DHT22;3638;48.820;9.244;2022-09-09T13:59:44;23.30;79.10
7194;DHT22;3638;48.820;9.244;2022-09-09T14:02:11;23.30;79.30
7194;DHT22;3638;48.820;9.244;2022-09-09T14:04:38;23.30;78.40
7194;DHT22;3638;48.820;9.244;2022-09-09T14:07:10;23.60;78.30
7194;DHT22;3638;48.820;9.244;2022-09-09T14:09:38;23.60;78.30
7194;DHT22;3638;48.820;9.244;2022-09-09T14:12:05;24.20;75.80
7194;DHT22;3638;48.820;9.244;2022-09-09T14:14:34;24.20;76.60
7194;DHT22;3638;48.820;9.244;2022-09-09T14:17:01;23.90;74.70
7194;DHT22;3638;48.820;9.244;2022-09-09T14:19:28;23.60;75.30
7194;DHT22;3638;48.820;9.244;2022-09-09T14:21:56;23.60;75.40
7194;DHT22;3638;48.820;9.244;2022-09-09T14:24:24;23.50;76.10
7194;DHT22;3638;48.820;9.244;2022-09-09T14:26:51;23.60;76.40
7194;DHT22;3638;48.820;9.244;2022-09-09T14:29:18;23.80;75.40
7194;DHT22;3638;48.820;9.244;2022-09-09T14:31:45;23.90;73.30
7194;DHT22;3638;48.820;9.244;2022-09-09T14:34:12;23.80;72.30
7194;DHT22;3638;48.820;9.244;2022-09-09T14:36:39;23.40;72.40
7194;DHT22;3638;48.820;9.244;2022-09-09T14:39:07;23.20;73.60
7194;DHT22;3638;48.820;9.244;2022-09-09T14:41:35;23.20;74.00
7194;DHT22;3638;48.820;9.244;2022-09-09T14:44:02;23.30;75.00
7194;DHT22;3638;48.820;9.244;2022-09-09T14:46:29;23.50;74.10
7194;DHT22;3638;48.820;9.244;2022-09-09T14:48:56;25.40;75.90
7194;DHT22;3638;48.820;9.244;2022-09-09T14:51:24;23.60;74.20
7194;DHT22;3638;48.820;9.244;2022-09-09T14:53:54;23.40;74.20
7194;DHT22;3638;48.820;9.244;2022-09-09T14:56:24;23.30;74.50
7194;DHT22;3638;48.820;9.244;2022-09-09T14:58:55;23.40;74.70
7194;DHT22;3638;48.820;9.244;2022-09-09T15:01:23;23.40;73.70
7194;DHT22;3638;48.820;9.244;2022-09-09T15:03:54;23.40;73.90
7194;DHT22;3638;48.820;9.244;2022-09-09T15:06:24;23.50;74.00
7194;DHT22;3638;48.820;9.244;2022-09-09T15:08:53;23.50;74.80
7194;DHT22;3638;48.820;9.244;2022-09-09T15:11:23;23.80;73.60
7194;DHT22;3638;48.820;9.244;2022-09-09T15:13:54;23.70;72.70
7194;DHT22;3638;48.820;9.244;2022-09-09T15:16:23;23.60;72.40
7194;DHT22;3638;48.820;9.244;2022-09-09T15:18:53;23.50;71.80
7194;DHT22;3638;48.820;9.244;2022-09-09T15:21:22;23.10;72.90
7194;DHT22;3638;48.820;9.244;2022-09-09T15:23:50;22.90;73.80
7194;DHT22;3638;48.820;9.244;2022-09-09T15:26:18;22.80;74.10
7194;DHT22;3638;48.820;9.244;2022-09-09T15:28:47;22.70;74.10
7194;DHT22;3638;48.820;9.244;2022-09-09T15:31:19;22.70;75.20
7194;DHT22;3638;48.820;9.244;2022-09-09T15:33:47;22.70;76.00
7194;DHT22;3638;48.820;9.244;2022-09-09T15:36:16;22.70;75.70
7194;DHT22;3638;48.820;9.244;2022-09-09T15:38:44;22.80;75.50
7194;DHT22;3638;48.820;9.244;2022-09-09T15:41:12;22.70;75.50
7194;DHT22;3638;48.820;9.244;2022-09-09T15:43:42;22.60;76.00
7194;DHT22;3638;48.820;9.244;2022-09-09T15:46:25;22.60;76.40
7194;DHT22;3638;48.820;9.244;2022-09-09T15:48:55;22.70;76.40
7194;DHT22;3638;48.820;9.244;2022-09-09T15:51:23;22.50;75.90
7194;DHT22;3638;48.820;9.244;2022-09-09T15:53:54;22.40;76.60
7194;DHT22;3638;48.820;9.244;2022-09-09T15:56:22;22.20;77.20
7194;DHT22;3638;48.820;9.244;2022-09-09T15:58:49;22.00;77.90
7194;DHT22;3638;48.820;9.244;2022-09-09T16:01:18;22.00;78.40
7194;DHT22;3638;48.820;9.244;2022-09-09T16:03:47;21.90;78.40
7194;DHT22;3638;48.820;9.244;2022-09-09T16:06:17;21.70;80.00
7194;DHT22;3638;48.820;9.244;2022-09-09T16:08:48;21.70;80.30
7194;DHT22;3638;48.820;9.244;2022-09-09T16:11:17;21.60;79.40
7194;DHT22;3638;48.820;9.244;2022-09-09T16:13:47;21.70;81.20
7194;DHT22;3638;48.820;9.244;2022-09-09T16:16:16;21.70;81.10
7194;DHT22;3638;48.820;9.244;2022-09-09T16:18:47;21.70;80.70
7194;DHT22;3638;48.820;9.244;2022-09-09T16:21:17;21.70;85.50
7194;DHT22;3638;48.820;9.244;2022-09-09T16:23:45;21.80;86.00
7194;DHT22;3638;48.820;9.244;2022-09-09T16:26:15;21.70;88.30
7194;DHT22;3638;48.820;9.244;2022-09-09T16:28:43;20.30;85.00
7194;DHT22;3638;48.820;9.244;2022-09-09T16:31:15;21.40;85.00
7194;DHT22;3638;48.820;9.244;2022-09-09T16:33:46;21.40;84.10
7194;DHT22;3638;48.820;9.244;2022-09-09T16:36:16;21.30;84.40
7194;DHT22;3638;48.820;9.244;2022-09-09T16:38:44;21.00;82.80
7194;DHT22;3638;48.820;9.244;2022-09-09T16:41:12;20.70;83.20
7194;DHT22;3638;48.820;9.244;2022-09-09T16:43:40;20.70;83.90
7194;DHT22;3638;48.820;9.244;2022-09-09T16:46:12;20.50;84.30
7194;DHT22;3638;48.820;9.244;2022-09-09T16:48:41;20.20;85.70